Time;durP1;ratioP1;P1;durP2;ratioP2;P2;SDS_P1;SDS_P2;PMS_P1;PMS_P2;Temp;Humidity;BMP_temperature;BMP_pressure;BME280_temperature;BME280_humidity;BME280_pressure;Samples;Min_cycle;Max_cycle;Signal;HPM_P1;HPM_P2
2022/12/02 00:00:23;;;;;;;80.40;38.10;;;6.90;99.90;;;;;;5032708;28;20026;-81
2022/12/02 00:02:49;;;;;;;76.85;36.17;;;6.90;99.90;;;;;;5031365;28;20022;-81
2022/12/02 00:05:15;;;;;;;76.47;34.95;;;6.90;99.90;;;;;;5031583;28;20500;-81
2022/12/02 00:07:48;;;;;;;80.68;36.67;;;6.90;99.90;;;;;;5031375;28;20026;-82
2022/12/02 00:10:32;;;;;;;77.80;35.92;;;6.90;99.90;;;;;;5014835;28;20124;-81
2022/12/02 00:13:14;;;;;;;78.07;35.05;;;6.90;99.90;;;;;;5030713;28;20029;-81
2022/12/02 00:15:42;;;;;;;67.28;34.00;;;6.90;99.90;;;;;;5031262;28;20024;-81
2022/12/02 00:18:13;;;;;;;68.45;33.70;;;6.90;99.90;;;;;;5031268;28;20476;-81
2022/12/02 00:20:39;;;;;;;72.10;34.38;;;6.90;99.90;;;;;;5031316;28;20017;-81
2022/12/02 00:23:05;;;;;;;67.85;32.70;;;6.90;99.90;;;;;;5031231;28;20124;-81
2022/12/02 00:25:31;;;;;;;68.60;33.58;;;6.80;99.90;;;;;;5032169;28;20026;-81
2022/12/02 00:27:57;;;;;;;68.75;34.50;;;6.80;99.90;;;;;;5031249;28;20037;-81
2022/12/02 00:30:24;;;;;;;63.85;30.98;;;6.80;99.90;;;;;;5034658;28;20022;-81
2022/12/02 00:32:49;;;;;;;64.53;34.08;;;6.80;99.90;;;;;;5034788;28;20026;-81
2022/12/02 00:35:15;;;;;;;66.35;33.40;;;6.80;99.90;;;;;;5018676;28;20017;-81
2022/12/02 00:37:41;;;;;;;63.53;32.90;;;6.80;99.90;;;;;;5034099;28;20432;-81
2022/12/02 00:40:07;;;;;;;61.92;31.88;;;6.80;99.90;;;;;;5018239;28;20042;-81
2022/12/02 00:42:33;;;;;;;64.40;31.92;;;6.70;99.90;;;;;;5017915;28;20469;-81
2022/12/02 00:47:43;;;;;;;63.08;32.03;;;6.70;99.90;;;;;;5034969;28;20079;-81
2022/12/02 00:50:10;;;;;;;65.40;32.63;;;6.70;99.90;;;;;;5034549;28;20030;-80
2022/12/02 00:52:36;;;;;;;66.55;32.60;;;6.70;99.90;;;;;;5018181;28;20026;-81
2022/12/02 00:55:01;;;;;;;67.43;33.30;;;6.70;99.90;;;;;;5035832;28;20031;-82
2022/12/02 00:57:27;;;;;;;61.13;32.30;;;6.60;99.90;;;;;;5034557;28;20045;-81
2022/12/02 00:59:52;;;;;;;63.75;33.38;;;6.60;99.90;;;;;;5034275;28;20037;-83
2022/12/02 01:02:18;;;;;;;70.47;32.88;;;6.70;99.90;;;;;;5034690;28;20033;-81
2022/12/02 01:04:44;;;;;;;71.15;34.60;;;6.60;99.90;;;;;;5034159;28;20125;-81
2022/12/02 01:07:09;;;;;;;62.55;32.58;;;6.60;99.90;;;;;;5034045;28;20065;-81
2022/12/02 01:09:35;;;;;;;66.85;33.78;;;6.60;99.90;;;;;;5017639;28;20052;-82
2022/12/02 01:12:03;;;;;;;67.10;33.33;;;6.60;99.90;;;;;;5033810;28;20041;-81
2022/12/02 01:14:29;;;;;;;68.20;33.60;;;6.60;99.90;;;;;;5018054;28;20036;-81
2022/12/02 01:16:54;;;;;;;65.90;33.33;;;6.60;99.90;;;;;;5034063;28;20029;-81
2022/12/02 01:19:20;;;;;;;61.72;32.67;;;6.50;99.90;;;;;;5017330;28;20033;-81
2022/12/02 01:21:46;;;;;;;65.55;33.38;;;6.50;99.90;;;;;;5017383;28;20029;-81
2022/12/02 01:24:11;;;;;;;66.18;33.50;;;6.50;99.90;;;;;;5017658;28;20032;-81
2022/12/02 01:26:37;;;;;;;63.33;31.27;;;6.50;99.90;;;;;;5033843;28;20401;-82
2022/12/02 01:29:03;;;;;;;64.00;32.20;;;6.50;99.90;;;;;;5017522;28;20438;-81
2022/12/02 01:31:28;;;;;;;71.05;34.25;;;6.50;99.90;;;;;;5016998;28;20125;-81
2022/12/02 01:33:54;;;;;;;66.28;31.38;;;6.50;99.90;;;;;;5033729;28;20029;-80
2022/12/02 01:36:20;;;;;;;64.50;32.90;;;6.50;99.90;;;;;;5016398;28;20034;-80
2022/12/02 01:38:45;;;;;;;64.82;31.42;;;6.50;99.90;;;;;;5016951;28;20473;-81
2022/12/02 01:41:11;;;;;;;64.57;32.63;;;6.50;99.90;;;;;;5033002;28;20033;-81
2022/12/02 01:43:37;;;;;;;59.92;30.80;;;6.50;99.90;;;;;;5034829;28;20032;-82
2022/12/02 01:46:03;;;;;;;65.65;32.63;;;6.50;99.90;;;;;;5033583;28;20136;-80
2022/12/02 01:48:29;;;;;;;64.05;31.23;;;6.50;99.90;;;;;;5034852;28;20029;-80
2022/12/02 01:50:56;;;;;;;63.85;30.73;;;6.40;99.90;;;;;;5034765;28;20025;-81
2022/12/02 01:53:23;;;;;;;69.07;31.70;;;6.40;99.90;;;;;;5033383;28;20040;-80
2022/12/02 01:55:48;;;;;;;64.10;30.45;;;6.40;99.90;;;;;;5033265;28;20052;-81
2022/12/02 01:58:23;;;;;;;58.45;30.20;;;6.40;99.90;;;;;;5034700;28;20470;-81
2022/12/02 02:00:48;;;;;;;66.28;30.67;;;6.40;99.90;;;;;;5034254;28;20033;-81
2022/12/02 02:03:14;;;;;;;66.35;30.75;;;6.40;99.90;;;;;;5000164;28;20030;-79
2022/12/02 02:05:40;;;;;;;64.63;30.88;;;6.40;99.90;;;;;;5033250;28;20025;-81
2022/12/02 02:08:09;;;;;;;61.03;29.55;;;6.40;99.90;;;;;;5033239;28;20029;-80
2022/12/02 02:10:36;;;;;;;64.32;30.90;;;6.40;99.90;;;;;;5033175;28;20465;-80
2022/12/02 02:13:02;;;;;;;64.35;31.83;;;6.40;99.90;;;;;;5033133;28;20499;-79
2022/12/02 02:15:28;;;;;;;65.78;31.13;;;6.40;99.90;;;;;;5033070;28;20052;-80
2022/12/02 02:17:56;;;;;;;60.47;28.80;;;6.40;99.90;;;;;;5032798;28;20440;-80
2022/12/02 02:20:24;;;;;;;64.70;30.83;;;6.40;99.90;;;;;;5033946;28;20079;-80
2022/12/02 02:23:04;;;;;;;63.85;30.70;;;6.40;99.90;;;;;;5033788;28;20025;-80
2022/12/02 02:25:39;;;;;;;65.32;29.88;;;6.40;99.90;;;;;;5033014;28;20029;-80
2022/12/02 02:28:05;;;;;;;68.90;34.13;;;6.40;99.90;;;;;;5032677;28;20026;-80
2022/12/02 02:30:33;;;;;;;64.65;28.63;;;6.40;99.90;;;;;;5033774;28;20029;-80
2022/12/02 02:33:01;;;;;;;66.90;30.63;;;6.40;99.90;;;;;;5015939;28;20172;-80
2022/12/02 02:35:27;;;;;;;68.20;31.85;;;6.40;99.90;;;;;;5032554;28;20033;-80
2022/12/02 02:37:55;;;;;;;73.13;32.30;;;6.30;99.90;;;;;;5033753;28;20030;-81
2022/12/02 02:40:23;;;;;;;62.88;28.85;;;6.40;99.90;;;;;;5016102;28;20029;-80
2022/12/02 02:42:52;;;;;;;63.95;28.55;;;6.30;99.90;;;;;;5031845;28;20159;-81
2022/12/02 02:45:24;;;;;;;62.22;26.88;;;6.30;99.90;;;;;;5032244;28;20060;-81
2022/12/02 02:47:50;;;;;;;57.65;25.63;;;6.30;99.90;;;;;;5032157;28;20025;-81
2022/12/02 02:50:17;;;;;;;52.47;24.85;;;6.20;99.90;;;;;;5032331;28;20033;-80
2022/12/02 02:52:43;;;;;;;53.53;24.88;;;6.20;99.90;;;;;;5033531;28;20021;-80
2022/12/02 02:55:17;;;;;;;54.75;24.02;;;6.20;99.90;;;;;;4999355;28;20421;-81
2022/12/02 02:57:42;;;;;;;53.47;23.60;;;6.20;99.90;;;;;;5032241;28;20029;-81
2022/12/02 03:00:09;;;;;;;46.70;22.00;;;6.10;99.90;;;;;;5015618;28;20026;-81
2022/12/02 03:02:35;;;;;;;49.92;23.10;;;6.20;99.90;;;;;;5032265;28;20030;-80
2022/12/02 03:05:01;;;;;;;50.35;22.30;;;6.20;99.90;;;;;;5015309;28;20060;-81
2022/12/02 03:07:27;;;;;;;49.90;23.35;;;6.20;99.90;;;;;;5015861;28;20029;-81
2022/12/02 03:09:53;;;;;;;48.13;21.75;;;6.20;99.90;;;;;;5015794;28;20025;-82
2022/12/02 03:12:19;;;;;;;51.95;23.13;;;6.20;99.90;;;;;;5015961;28;20095;-81
2022/12/02 03:14:45;;;;;;;46.92;21.85;;;6.20;99.90;;;;;;5015594;28;20389;-81
2022/12/02 03:17:11;;;;;;;45.42;21.10;;;6.20;99.90;;;;;;4999163;28;20372;-80
2022/12/02 03:19:38;;;;;;;48.50;21.73;;;6.10;99.90;;;;;;5032021;28;20565;-80
2022/12/02 03:22:04;;;;;;;45.60;20.52;;;6.10;99.90;;;;;;5015357;28;20480;-81
2022/12/02 03:24:31;;;;;;;49.88;22.13;;;6.10;99.90;;;;;;5031908;28;20037;-82
2022/12/02 03:26:58;;;;;;;45.85;22.20;;;6.10;99.90;;;;;;5031979;28;20105;-81
2022/12/02 03:29:24;;;;;;;44.15;21.13;;;6.10;99.90;;;;;;5031795;28;20033;-81
2022/12/02 03:31:50;;;;;;;48.50;20.60;;;6.10;99.90;;;;;;5032885;28;20100;-82
2022/12/02 03:34:16;;;;;;;46.70;21.98;;;6.10;99.90;;;;;;5015482;28;20048;-81
2022/12/02 03:36:42;;;;;;;45.28;20.92;;;6.10;99.90;;;;;;5031754;28;20124;-80
2022/12/02 03:39:09;;;;;;;48.85;21.52;;;6.10;99.90;;;;;;5014931;28;20124;-81
2022/12/02 03:41:35;;;;;;;45.55;21.75;;;6.10;99.90;;;;;;5015558;28;20022;-80
2022/12/02 03:44:01;;;;;;;47.67;20.85;;;6.10;99.90;;;;;;5032410;28;20033;-81
2022/12/02 03:46:28;;;;;;;45.42;21.23;;;6.10;99.90;;;;;;5031480;28;20052;-81
2022/12/02 03:48:55;;;;;;;43.92;20.67;;;6.10;99.90;;;;;;5031464;28;20017;-81
2022/12/02 03:51:21;;;;;;;49.22;22.90;;;6.20;99.90;;;;;;5015274;28;20030;-81
2022/12/02 03:53:47;;;;;;;48.15;21.77;;;6.10;99.90;;;;;;5033006;28;20030;-81
2022/12/02 03:56:13;;;;;;;50.65;21.10;;;6.10;99.90;;;;;;5031444;28;20061;-81
2022/12/02 03:58:50;;;;;;;41.95;20.13;;;6.10;99.90;;;;;;5031509;28;20084;-81
2022/12/02 04:01:18;;;;;;;45.42;22.05;;;6.10;99.90;;;;;;5027016;28;20030;-81
2022/12/02 04:03:44;;;;;;;50.85;22.02;;;6.10;99.90;;;;;;5020074;28;20124;-81
2022/12/02 04:06:10;;;;;;;47.63;20.85;;;6.10;99.90;;;;;;5034014;28;20056;-81
2022/12/02 04:08:36;;;;;;;51.17;22.25;;;6.10;99.90;;;;;;5035543;28;20434;-81
2022/12/02 04:11:02;;;;;;;42.42;20.48;;;6.10;99.90;;;;;;5036811;28;20032;-81
2022/12/02 04:13:28;;;;;;;53.33;22.33;;;6.10;99.90;;;;;;5037066;28;20033;-81
2022/12/02 04:15:54;;;;;;;50.33;22.80;;;6.10;99.90;;;;;;5018791;28;20461;-81
2022/12/02 04:18:19;;;;;;;48.50;22.27;;;6.10;99.90;;;;;;5035236;28;20080;-80
2022/12/02 04:20:45;;;;;;;52.05;24.08;;;6.10;99.90;;;;;;5035292;28;20067;-81
2022/12/02 04:23:11;;;;;;;47.25;23.50;;;6.10;99.90;;;;;;5034938;28;20049;-80
2022/12/02 04:25:36;;;;;;;51.28;23.55;;;6.10;99.90;;;;;;5035216;28;20022;-81
2022/12/02 04:28:02;;;;;;;55.67;24.17;;;6.10;99.90;;;;;;5018504;28;20025;-81
2022/12/02 04:30:28;;;;;;;49.03;21.75;;;6.10;99.90;;;;;;5035033;28;20033;-81
2022/12/02 04:32:54;;;;;;;53.38;22.73;;;6.10;99.90;;;;;;5018530;28;20500;-81
2022/12/02 04:35:20;;;;;;;47.92;21.75;;;6.10;99.90;;;;;;5034985;28;20029;-81
2022/12/02 04:37:45;;;;;;;45.17;20.35;;;6.00;99.90;;;;;;5034792;28;20037;-82
2022/12/02 04:40:12;;;;;;;47.25;20.92;;;6.00;99.90;;;;;;5018261;28;20355;-81
2022/12/02 04:42:37;;;;;;;47.72;20.65;;;6.00;99.90;;;;;;5035206;28;20159;-81
2022/12/02 04:45:03;;;;;;;46.20;20.25;;;6.10;99.90;;;;;;5035076;28;20132;-81
2022/12/02 04:47:30;;;;;;;42.88;20.35;;;6.10;99.90;;;;;;5036336;28;20025;-83
2022/12/02 04:49:55;;;;;;;49.03;20.45;;;6.00;99.90;;;;;;5016645;28;20030;-82
2022/12/02 04:52:21;;;;;;;42.50;18.98;;;6.00;99.90;;;;;;5016276;28;20032;-83
2022/12/02 04:54:47;;;;;;;43.53;18.42;;;6.00;99.90;;;;;;5033441;28;20065;-81
2022/12/02 04:57:14;;;;;;;40.28;19.27;;;6.00;99.90;;;;;;5032428;28;20049;-82
2022/12/02 04:59:40;;;;;;;44.45;19.42;;;6.00;99.90;;;;;;5033093;28;20028;-81
2022/12/02 05:02:06;;;;;;;48.05;19.63;;;6.00;99.90;;;;;;5034468;28;20112;-81
2022/12/02 05:04:32;;;;;;;41.53;18.27;;;6.00;99.90;;;;;;5016925;28;20417;-81
2022/12/02 05:06:57;;;;;;;38.53;17.50;;;6.00;99.90;;;;;;5034533;28;20488;-81
2022/12/02 05:09:23;;;;;;;41.85;18.30;;;6.00;99.90;;;;;;5017752;28;20026;-82
2022/12/02 05:11:48;;;;;;;42.45;18.40;;;6.00;99.90;;;;;;5034356;28;20112;-81
2022/12/02 05:14:14;;;;;;;37.58;17.77;;;6.00;99.90;;;;;;5034388;28;20038;-80
2022/12/02 05:16:40;;;;;;;39.90;18.42;;;6.00;99.90;;;;;;5032971;28;20051;-81
2022/12/02 05:19:05;;;;;;;35.30;16.77;;;6.00;99.90;;;;;;5017620;28;20086;-80
2022/12/02 05:21:31;;;;;;;40.22;18.45;;;6.00;99.90;;;;;;5035302;28;20489;-81
2022/12/02 05:23:56;;;;;;;36.92;18.08;;;6.00;99.90;;;;;;5033919;28;20041;-81
2022/12/02 05:26:22;;;;;;;34.15;17.48;;;5.90;99.90;;;;;;5032851;28;20048;-80
2022/12/02 05:28:48;;;;;;;32.90;16.85;;;5.90;99.90;;;;;;5032252;28;20037;-80
2022/12/02 05:31:13;;;;;;;35.25;17.45;;;5.90;99.90;;;;;;5016998;28;20038;-80
2022/12/02 05:33:39;;;;;;;37.72;18.05;;;5.90;99.90;;;;;;5032327;28;20121;-80
2022/12/02 05:36:05;;;;;;;39.33;18.42;;;5.90;99.90;;;;;;5023365;28;20034;-80
2022/12/02 05:38:30;;;;;;;38.70;17.73;;;5.90;99.90;;;;;;5015937;28;20091;-81
2022/12/02 05:40:56;;;;;;;34.40;16.48;;;5.90;99.90;;;;;;5028552;28;20040;-81
2022/12/02 05:43:24;;;;;;;38.08;17.83;;;5.80;99.90;;;;;;5019413;28;20120;-83
2022/12/02 05:45:51;;;;;;;38.00;17.77;;;5.80;99.90;;;;;;5032823;28;20405;-80
2022/12/02 05:48:18;;;;;;;37.22;17.50;;;5.80;99.90;;;;;;5032928;28;20025;-80
2022/12/02 05:50:45;;;;;;;33.17;15.88;;;5.80;99.90;;;;;;5033342;28;20477;-81
2022/12/02 05:53:26;;;;;;;32.50;16.52;;;5.80;99.90;;;;;;5032996;28;20028;-80
2022/12/02 05:55:53;;;;;;;34.22;16.75;;;5.80;99.90;;;;;;5033332;28;20083;-79
2022/12/02 05:58:19;;;;;;;33.47;16.98;;;5.80;99.90;;;;;;5033053;28;20022;-81
2022/12/02 06:00:56;;;;;;;37.85;17.30;;;5.80;99.90;;;;;;5034383;28;20048;-82
2022/12/02 06:03:22;;;;;;;35.90;17.27;;;5.80;99.90;;;;;;5032575;28;20489;-81
2022/12/02 06:05:49;;;;;;;36.22;17.83;;;5.80;99.90;;;;;;5016915;28;20065;-81
2022/12/02 06:08:18;;;;;;;36.17;17.80;;;5.80;99.90;;;;;;5033088;28;20026;-80
2022/12/02 06:11:00;;;;;;;36.67;17.48;;;5.80;99.90;;;;;;5033284;28;20022;-81
2022/12/02 06:13:27;;;;;;;39.05;18.58;;;5.80;99.90;;;;;;5033133;28;20053;-81
2022/12/02 06:15:54;;;;;;;36.40;18.17;;;5.80;99.90;;;;;;5016864;28;20100;-81
2022/12/02 06:18:28;;;;;;;39.22;19.30;;;5.80;99.90;;;;;;5016540;28;20029;-80
2022/12/02 06:21:00;;;;;;;39.22;18.95;;;5.80;99.90;;;;;;5033110;28;20036;-80
2022/12/02 06:23:28;;;;;;;38.42;19.55;;;5.80;99.90;;;;;;5034334;28;20075;-81
2022/12/02 06:25:55;;;;;;;35.88;17.80;;;5.70;99.90;;;;;;5034389;28;20130;-81
2022/12/02 06:28:40;;;;;;;39.80;19.48;;;5.70;99.90;;;;;;5000034;28;20385;-81
2022/12/02 06:31:22;;;;;;;36.90;18.05;;;5.80;99.90;;;;;;5033098;28;20061;-80
2022/12/02 06:33:51;;;;;;;38.75;19.27;;;5.70;99.90;;;;;;5033058;28;20041;-79
2022/12/02 06:36:25;;;;;;;36.10;18.50;;;5.70;99.90;;;;;;5032562;28;20055;-80
2022/12/02 06:38:55;;;;;;;36.28;17.65;;;5.70;99.90;;;;;;5032712;28;20033;-80
2022/12/02 06:41:26;;;;;;;37.88;19.20;;;5.70;99.90;;;;;;5037662;28;20021;-79
2022/12/02 06:46:42;;;;;;;36.80;17.33;;;5.70;99.90;;;;;;5033730;28;20079;-80
2022/12/02 06:49:22;;;;;;;34.20;17.63;;;5.70;99.90;;;;;;5015922;28;20116;-80
2022/12/02 06:51:54;;;;;;;33.30;16.23;;;5.70;99.90;;;;;;5033498;28;20090;-81
2022/12/02 06:54:22;;;;;;;35.92;17.77;;;5.70;99.90;;;;;;5032574;28;20040;-81
2022/12/02 06:56:49;;;;;;;36.63;17.85;;;5.70;99.90;;;;;;5032387;28;20466;-79
2022/12/02 06:59:20;;;;;;;34.33;18.52;;;5.70;99.90;;;;;;5015733;28;20108;-81
2022/12/02 07:01:46;;;;;;;39.90;18.95;;;5.60;99.90;;;;;;5032537;28;20022;-80
2022/12/02 07:04:38;;;;;;;38.65;18.38;;;5.70;99.90;;;;;;5015454;28;20079;-80
2022/12/02 07:07:29;;;;;;;39.05;19.55;;;5.70;99.90;;;;;;5032058;28;20490;-80
2022/12/02 07:09:57;;;;;;;35.80;18.33;;;5.60;99.90;;;;;;5017331;28;20025;-80
2022/12/02 07:12:33;;;;;;;37.95;19.25;;;5.60;99.90;;;;;;5032020;28;20103;-82
2022/12/02 07:15:15;;;;;;;37.10;18.33;;;5.60;99.90;;;;;;5032134;28;20021;-80
2022/12/02 07:17:42;;;;;;;44.33;18.63;;;5.60;99.90;;;;;;5032425;28;20084;-80
2022/12/02 07:20:09;;;;;;;37.65;18.83;;;5.60;99.90;;;;;;5033787;28;20048;-80
2022/12/02 07:22:46;;;;;;;43.25;20.23;;;5.60;99.90;;;;;;5031987;28;20156;-80
2022/12/02 07:25:15;;;;;;;37.92;18.63;;;5.60;99.90;;;;;;5031922;28;20033;-80
2022/12/02 07:27:48;;;;;;;36.75;18.08;;;5.60;99.90;;;;;;5031845;28;20087;-81
2022/12/02 07:30:22;;;;;;;41.22;19.63;;;5.60;99.90;;;;;;5033365;28;20466;-80
2022/12/02 07:32:48;;;;;;;43.53;19.42;;;5.60;99.90;;;;;;5031879;28;20032;-80
2022/12/02 07:35:13;;;;;;;34.00;17.92;;;5.60;99.90;;;;;;5031977;28;20025;-81
2022/12/02 07:37:39;;;;;;;39.83;19.17;;;5.60;99.90;;;;;;4998680;28;20095;-81
2022/12/02 07:40:06;;;;;;;40.78;18.25;;;5.50;99.90;;;;;;5014943;28;20377;-81
2022/12/02 07:42:31;;;;;;;40.53;18.52;;;5.50;99.90;;;;;;5015747;28;20021;-81
2022/12/02 07:44:58;;;;;;;39.58;18.75;;;5.50;99.90;;;;;;5031431;28;20044;-80
2022/12/02 07:47:23;;;;;;;45.10;18.75;;;5.50;99.90;;;;;;5032679;28;20026;-81
2022/12/02 07:49:49;;;;;;;39.80;17.02;;;5.50;99.90;;;;;;5015538;28;20175;-80
2022/12/02 07:52:14;;;;;;;39.20;19.13;;;5.50;99.90;;;;;;5031472;28;20025;-86
2022/12/02 07:54:40;;;;;;;42.80;18.70;;;5.50;99.90;;;;;;5015588;28;20029;-81
2022/12/02 07:57:06;;;;;;;37.60;18.50;;;5.50;99.90;;;;;;5016090;28;20033;-81
2022/12/02 07:59:31;;;;;;;37.80;18.60;;;5.50;99.90;;;;;;4998943;28;20033;-81
2022/12/02 08:01:57;;;;;;;42.85;18.05;;;5.50;99.90;;;;;;4998794;28;20026;-81
2022/12/02 08:04:23;;;;;;;36.50;17.88;;;5.50;99.90;;;;;;5031591;28;20500;-82
2022/12/02 08:06:48;;;;;;;41.90;18.48;;;5.50;99.90;;;;;;5013535;28;20065;-80
2022/12/02 08:09:14;;;;;;;41.67;18.83;;;5.50;99.90;;;;;;5029998;28;20477;-80
2022/12/02 08:11:40;;;;;;;38.88;17.92;;;5.50;99.90;;;;;;5031172;28;20029;-81
2022/12/02 08:14:05;;;;;;;40.17;18.23;;;5.50;99.90;;;;;;5030996;28;20030;-80
2022/12/02 08:16:31;;;;;;;42.78;18.98;;;5.50;99.90;;;;;;5030347;28;20021;-81
2022/12/02 08:18:59;;;;;;;44.83;20.17;;;5.50;99.90;;;;;;5013737;28;20034;-80
2022/12/02 08:21:25;;;;;;;41.15;18.42;;;5.50;99.90;;;;;;4995536;28;20026;-80
2022/12/02 08:23:51;;;;;;;41.75;18.70;;;5.50;99.90;;;;;;5032198;28;20528;-80
2022/12/02 08:26:16;;;;;;;47.47;19.88;;;5.50;99.90;;;;;;5030772;28;20091;-80
2022/12/02 08:28:42;;;;;;;43.97;19.90;;;5.50;99.90;;;;;;5030176;28;20032;-84
2022/12/02 08:31:08;;;;;;;49.38;19.35;;;5.50;99.90;;;;;;5030855;28;20029;-80
2022/12/02 08:33:33;;;;;;;43.92;19.10;;;5.50;99.90;;;;;;5031481;28;20084;-80
2022/12/02 08:35:59;;;;;;;43.50;20.00;;;5.50;99.90;;;;;;5030538;28;20030;-80
2022/12/02 08:38:25;;;;;;;49.95;19.15;;;5.40;99.90;;;;;;5014578;28;20445;-82
2022/12/02 08:40:51;;;;;;;42.00;19.30;;;5.50;99.90;;;;;;5029454;28;20086;-80
2022/12/02 08:43:16;;;;;;;46.00;20.02;;;5.40;99.90;;;;;;5014007;28;20021;-81
2022/12/02 08:45:42;;;;;;;52.20;19.38;;;5.50;99.90;;;;;;5030079;28;20478;-80
2022/12/02 08:48:08;;;;;;;48.80;20.17;;;5.40;99.90;;;;;;5030557;28;20037;-80
2022/12/02 08:50:33;;;;;;;45.40;19.00;;;5.50;99.90;;;;;;5014673;28;20547;-80
2022/12/02 08:52:59;;;;;;;50.60;21.40;;;5.40;99.90;;;;;;5034041;28;20432;-80
2022/12/02 08:55:25;;;;;;;52.22;21.30;;;5.40;99.90;;;;;;5033996;28;20112;-80
2022/12/02 08:57:51;;;;;;;49.70;20.85;;;5.40;99.90;;;;;;5017459;28;20056;-80
2022/12/02 09:00:17;;;;;;;51.92;21.38;;;5.40;99.90;;;;;;5033114;28;20029;-80
2022/12/02 09:02:43;;;;;;;54.08;20.92;;;5.40;99.90;;;;;;5033333;28;20057;-80
2022/12/02 09:05:08;;;;;;;50.40;21.38;;;5.40;99.90;;;;;;5033728;28;20044;-82
2022/12/02 09:07:34;;;;;;;58.17;21.65;;;5.40;99.90;;;;;;5032911;28;20058;-80
2022/12/02 09:10:00;;;;;;;56.15;21.85;;;5.40;99.90;;;;;;5014045;28;20029;-80
2022/12/02 09:12:26;;;;;;;55.10;21.88;;;5.40;99.90;;;;;;5033407;28;20072;-83
2022/12/02 09:14:52;;;;;;;50.58;21.60;;;5.40;99.90;;;;;;5016656;28;20037;-81
2022/12/02 09:17:18;;;;;;;47.35;20.60;;;5.40;99.90;;;;;;5033657;28;20033;-81
2022/12/02 09:19:44;;;;;;;52.78;22.45;;;5.40;99.90;;;;;;5034906;28;20442;-81
2022/12/02 09:22:09;;;;;;;50.38;21.08;;;5.40;99.90;;;;;;5033114;28;20470;-81
2022/12/02 09:24:35;;;;;;;56.05;22.17;;;5.40;99.90;;;;;;5032560;28;20401;-81
2022/12/02 09:27:01;;;;;;;48.70;21.70;;;5.40;99.90;;;;;;5034804;28;20034;-82
2022/12/02 09:29:26;;;;;;;53.80;20.73;;;5.40;99.90;;;;;;5017206;28;20041;-81
2022/12/02 09:31:52;;;;;;;50.10;20.90;;;5.50;99.90;;;;;;5033319;28;20482;-81
2022/12/02 09:34:18;;;;;;;47.83;20.27;;;5.40;99.90;;;;;;5037086;28;20041;-81
2022/12/02 09:36:44;;;;;;;53.40;20.73;;;5.40;99.90;;;;;;5016647;28;20057;-81
2022/12/02 09:39:10;;;;;;;53.97;21.25;;;5.40;99.90;;;;;;5032480;28;20115;-81
2022/12/02 09:41:36;;;;;;;44.15;20.17;;;5.40;99.90;;;;;;5033353;28;20482;-81
2022/12/02 09:44:03;;;;;;;48.88;19.90;;;5.40;99.90;;;;;;5013953;28;20037;-81
2022/12/02 09:46:30;;;;;;;44.95;19.52;;;5.40;99.90;;;;;;5033293;28;20138;-87
2022/12/02 09:48:56;;;;;;;45.75;19.85;;;5.40;99.90;;;;;;5030804;28;20033;-80
2022/12/02 09:51:22;;;;;;;47.33;20.20;;;5.40;99.90;;;;;;5031748;28;20619;-80
2022/12/02 09:53:48;;;;;;;43.65;19.35;;;5.40;99.90;;;;;;5035388;28;20481;-84
2022/12/02 09:56:16;;;;;;;47.10;19.80;;;5.50;99.90;;;;;;5016101;28;20017;-80
2022/12/02 09:58:43;;;;;;;49.63;20.55;;;5.40;99.90;;;;;;5032502;28;20025;-84
2022/12/02 10:01:11;;;;;;;46.47;20.40;;;5.40;99.90;;;;;;5031281;28;20064;-81
2022/12/02 10:03:37;;;;;;;46.15;18.73;;;5.50;99.90;;;;;;5015608;28;20064;-81
2022/12/02 10:06:06;;;;;;;45.92;19.35;;;5.40;99.90;;;;;;5032686;28;20417;-80
2022/12/02 10:08:32;;;;;;;44.60;19.45;;;5.40;99.90;;;;;;5033094;28;20025;-82
2022/12/02 10:10:58;;;;;;;46.38;19.13;;;5.40;99.90;;;;;;4995209;28;20037;-81
2022/12/02 10:13:25;;;;;;;46.63;19.50;;;5.40;99.90;;;;;;5032670;28;20078;-80
2022/12/02 10:15:52;;;;;;;46.17;20.55;;;5.40;99.90;;;;;;5031577;28;20029;-82
2022/12/02 10:18:20;;;;;;;40.28;18.38;;;5.50;99.90;;;;;;5032291;28;20033;-81
2022/12/02 10:20:46;;;;;;;43.38;18.58;;;5.50;99.90;;;;;;5031855;28;20060;-81
2022/12/02 10:23:21;;;;;;;43.78;18.52;;;5.40;99.90;;;;;;5033064;28;20021;-81
2022/12/02 10:25:57;;;;;;;49.03;19.60;;;5.40;99.90;;;;;;5027238;28;20017;-81
2022/12/02 10:28:34;;;;;;;46.95;18.98;;;5.50;99.90;;;;;;5032244;28;20018;-81
2022/12/02 10:31:07;;;;;;;50.28;19.17;;;5.50;99.90;;;;;;5032121;28;20048;-81
2022/12/02 10:33:37;;;;;;;39.30;18.73;;;5.40;99.90;;;;;;5031761;28;20025;-82
2022/12/02 10:36:04;;;;;;;43.30;18.25;;;5.40;99.90;;;;;;5030955;28;20029;-80
2022/12/02 10:38:44;;;;;;;43.95;19.05;;;5.40;99.90;;;;;;5015061;28;20057;-82
2022/12/02 10:41:10;;;;;;;48.03;18.73;;;5.50;99.90;;;;;;5028808;28;20489;-79
2022/12/02 10:43:36;;;;;;;42.95;19.50;;;5.40;99.90;;;;;;5031887;28;20075;-80
2022/12/02 10:46:02;;;;;;;43.30;18.77;;;5.40;99.90;;;;;;5031451;28;20053;-79
2022/12/02 10:48:27;;;;;;;45.42;18.27;;;5.40;99.90;;;;;;5017737;28;20072;-81
2022/12/02 10:50:54;;;;;;;43.42;18.08;;;5.40;99.90;;;;;;5029457;28;20080;-80
2022/12/02 10:53:26;;;;;;;45.60;18.55;;;5.40;99.90;;;;;;5032536;28;20053;-81
2022/12/02 10:55:51;;;;;;;43.08;18.08;;;5.40;99.90;;;;;;5028508;28;20029;-80
2022/12/02 10:58:25;;;;;;;43.17;17.17;;;5.50;99.90;;;;;;5031425;28;20040;-82
2022/12/02 11:00:58;;;;;;;40.40;18.38;;;5.50;99.90;;;;;;5029794;28;20086;-80
2022/12/02 11:03:24;;;;;;;44.42;17.77;;;5.50;99.90;;;;;;5031457;28;20323;-80
2022/12/02 11:05:51;;;;;;;46.13;18.02;;;5.40;99.90;;;;;;5033406;28;20057;-81
2022/12/02 11:08:22;;;;;;;42.80;17.17;;;5.40;99.90;;;;;;5030760;28;20034;-79
2022/12/02 11:11:04;;;;;;;39.22;16.80;;;5.40;99.90;;;;;;5030133;28;20029;-79
2022/12/02 11:13:51;;;;;;;41.63;16.48;;;5.40;99.90;;;;;;5032641;28;20036;-79
2022/12/02 11:16:28;;;;;;;39.22;15.98;;;5.40;99.90;;;;;;5031437;28;20053;-79
2022/12/02 11:19:15;;;;;;;38.72;16.40;;;5.40;99.90;;;;;;5031811;28;20465;-86
2022/12/02 11:21:43;;;;;;;44.58;17.40;;;5.40;99.90;;;;;;5031352;28;20052;-79
2022/12/02 11:24:21;;;;;;;39.67;16.25;;;5.30;99.90;;;;;;5027762;28;20039;-79
2022/12/02 11:26:58;;;;;;;42.13;17.23;;;5.30;99.90;;;;;;5030832;28;20029;-80
2022/12/02 11:29:31;;;;;;;40.88;15.93;;;5.30;99.90;;;;;;5030031;28;20512;-80
2022/12/02 11:32:37;;;;;;;40.47;16.77;;;5.30;99.90;;;;;;5015113;28;20030;-80
2022/12/02 11:35:12;;;;;;;44.67;16.42;;;5.30;99.90;;;;;;5031055;28;20035;-79
2022/12/02 11:37:41;;;;;;;42.55;17.20;;;5.30;99.90;;;;;;5032647;28;20079;-81
2022/12/02 11:40:10;;;;;;;47.60;18.25;;;5.30;99.90;;;;;;5030251;28;20048;-79
2022/12/02 11:42:37;;;;;;;49.85;17.55;;;5.30;99.90;;;;;;5032252;28;20025;-81
2022/12/02 11:45:15;;;;;;;44.53;16.55;;;5.30;99.90;;;;;;5033707;28;20068;-80
2022/12/02 11:47:53;;;;;;;57.35;19.90;;;5.30;99.90;;;;;;5028095;28;20088;-80
2022/12/02 11:50:24;;;;;;;50.78;17.42;;;5.30;99.90;;;;;;5031057;28;20037;-80
2022/12/02 11:53:01;;;;;;;51.38;18.50;;;5.30;99.90;;;;;;5032596;28;20109;-80
2022/12/02 11:55:41;;;;;;;52.90;18.70;;;5.30;99.90;;;;;;5035542;28;20022;-85
2022/12/02 11:58:20;;;;;;;51.22;19.90;;;5.30;99.90;;;;;;5028358;28;20389;-81
2022/12/02 12:01:04;;;;;;;53.22;18.63;;;5.30;99.90;;;;;;5044413;28;20048;-79
2022/12/02 12:03:30;;;;;;;42.63;15.80;;;5.30;99.90;;;;;;5027761;28;20354;-81
2022/12/02 12:06:17;;;;;;;52.00;18.75;;;5.30;99.90;;;;;;5028655;28;20030;-81
2022/12/02 12:08:48;;;;;;;46.05;17.73;;;5.30;99.90;;;;;;5012304;28;20038;-80
2022/12/02 12:11:33;;;;;;;48.60;17.63;;;5.30;99.90;;;;;;5029367;28;20026;-80
2022/12/02 12:14:06;;;;;;;42.42;16.70;;;5.30;99.90;;;;;;5029387;28;20359;-80
2022/12/02 12:16:37;;;;;;;44.38;16.50;;;5.30;99.90;;;;;;5014564;28;20032;-80
2022/12/02 12:19:24;;;;;;;47.58;17.92;;;5.40;99.90;;;;;;5028977;28;20018;-80
2022/12/02 12:21:54;;;;;;;44.72;16.70;;;5.40;99.90;;;;;;5031171;28;20068;-81
2022/12/02 12:24:20;;;;;;;43.38;16.45;;;5.40;99.90;;;;;;5016190;28;20113;-80
2022/12/02 12:26:51;;;;;;;38.58;16.50;;;5.40;99.90;;;;;;5015471;28;20385;-80
2022/12/02 12:29:17;;;;;;;;;;;5.50;99.90;;;;;;5030308;28;20026;-80
2022/12/02 12:31:43;;;;;;;46.97;16.60;;;5.40;99.90;;;;;;5022505;28;19944;-84
2022/12/02 12:34:10;;;;;;;39.45;15.65;;;5.40;99.90;;;;;;5015898;28;20070;-80
2022/12/02 12:36:36;;;;;;;34.97;14.57;;;5.40;99.90;;;;;;4983367;28;20026;-80
2022/12/02 12:39:04;;;;;;;37.50;15.35;;;5.50;99.90;;;;;;5015150;28;20069;-79
2022/12/02 12:41:29;;;;;;;38.60;15.10;;;5.40;99.90;;;;;;5027566;28;20033;-80
2022/12/02 12:43:55;;;;;;;41.60;15.55;;;5.50;99.90;;;;;;5034437;28;20033;-81
2022/12/02 12:46:21;;;;;;;33.95;13.90;;;5.50;99.90;;;;;;5033496;28;20045;-81
2022/12/02 12:48:46;;;;;;;35.67;14.63;;;5.50;99.90;;;;;;5018452;28;20068;-81